createdAt,value
2019-06-15T00:01:28.203Z,101177.21
2019-06-15T00:03:58.103Z,101176.73
2019-06-15T00:06:27.690Z,101168.27
2019-06-15T00:08:57.237Z,101159.70
2019-06-15T00:11:27.124Z,101153.83
2019-06-15T00:13:56.671Z,101153.94
2019-06-15T00:16:26.241Z,101154.43
2019-06-15T00:18:55.860Z,101155.78
2019-06-15T00:21:25.431Z,101161.61
2019-06-15T00:23:55.072Z,101155.85
2019-06-15T00:26:24.639Z,101151.73
2019-06-15T00:28:54.183Z,101150.84
2019-06-15T00:31:24.094Z,101147.28
2019-06-15T00:33:53.666Z,101150.47
2019-06-15T00:36:23.521Z,101156.34
2019-06-15T00:38:53.120Z,101151.81
2019-06-15T00:41:22.671Z,101157.20
2019-06-15T00:43:52.235Z,101153.16
2019-06-15T00:46:21.776Z,101153.16
2019-06-15T00:48:51.333Z,101153.64
2019-06-15T00:51:21.112Z,101159.41
2019-06-15T00:53:50.663Z,101162.96
2019-06-15T00:56:20.240Z,101153.64
2019-06-15T00:58:49.785Z,101155.36
2019-06-15T01:01:19.386Z,101149.98
2019-06-15T01:03:48.951Z,101151.33
2019-06-15T01:06:18.491Z,101144.22
2019-06-15T01:08:48.062Z,101150.09
2019-06-15T01:11:17.611Z,101149.20
2019-06-15T01:13:47.172Z,101150.95
2019-06-15T01:16:17.382Z,101149.98
2019-06-15T01:18:46.937Z,101158.06
2019-06-15T01:21:16.520Z,101154.13
2019-06-15T01:23:46.068Z,101157.20
2019-06-15T01:26:15.625Z,101157.20
2019-06-15T01:28:45.172Z,101154.58
2019-06-15T01:31:14.955Z,101151.03
2019-06-15T01:33:44.515Z,101149.68
2019-06-15T01:36:14.055Z,101140.66
2019-06-15T01:38:45.553Z,101130.50
2019-06-15T01:41:15.109Z,101131.36
2019-06-15T01:43:44.670Z,101131.36
2019-06-15T01:46:14.309Z,101115.31
2019-06-15T01:48:43.857Z,101117.41
2019-06-15T01:51:13.508Z,101102.22
2019-06-15T01:53:43.060Z,101097.69
2019-06-15T01:56:12.998Z,101085.09
2019-06-15T01:58:42.970Z,101079.81
2019-06-15T02:01:12.524Z,101078.35
2019-06-15T02:03:42.161Z,101068.55
2019-06-15T02:06:11.732Z,101065.64
2019-06-15T02:08:41.302Z,101059.40
2019-06-15T02:11:10.882Z,101056.81
2019-06-15T02:13:40.425Z,101051.59
2019-06-15T02:16:09.919Z,101056.52
2019-06-15T02:18:39.439Z,101062.66
2019-06-15T02:21:09.022Z,101060.72
2019-06-15T02:23:38.607Z,101067.75
2019-06-15T02:26:08.106Z,101081.21
2019-06-15T02:28:37.658Z,101080.28
2019-06-15T02:31:25.465Z,101079.20
2019-06-15T02:33:55.074Z,101081.22
2019-06-15T02:36:24.665Z,101082.16
2019-06-15T02:38:54.273Z,101089.11
2019-06-15T02:41:23.834Z,101087.84
2019-06-15T02:43:53.378Z,101087.54
2019-06-15T02:46:26.345Z,101094.77
2019-06-15T02:48:54.416Z,101085.98
2019-06-15T02:51:24.062Z,101091.55
2019-06-15T02:53:53.673Z,101100.78
2019-06-15T02:56:23.566Z,101104.75
2019-06-15T02:58:53.174Z,101106.88
2019-06-15T03:01:23.175Z,101108.22
2019-06-15T03:03:53.089Z,101111.97
2019-06-15T03:06:22.999Z,101104.83
2019-06-15T03:08:52.633Z,101115.22
2019-06-15T03:11:22.176Z,101114.25
2019-06-15T03:13:51.751Z,101116.78
2019-06-15T03:16:21.649Z,101122.63
2019-06-15T03:18:51.213Z,101116.78
2019-06-15T03:21:20.776Z,101108.14
2019-06-15T03:23:50.672Z,101119.30
2019-06-15T03:26:20.733Z,101107.09
2019-06-15T03:28:50.723Z,101107.25
2019-06-15T03:31:20.633Z,101112.07
2019-06-15T03:33:50.550Z,101107.25
2019-06-15T03:36:20.510Z,101113.34
2019-06-15T03:38:50.140Z,101113.72
2019-06-15T03:41:19.804Z,101109.67
2019-06-15T03:43:49.372Z,101111.02
2019-06-15T03:46:19.003Z,101115.25
2019-06-15T03:48:48.545Z,101113.20
2019-06-15T03:51:18.160Z,101120.56
2019-06-15T03:53:47.725Z,101111.22
2019-06-15T03:56:21.718Z,101121.77
2019-06-15T03:58:48.694Z,101122.55
2019-06-15T04:01:27.940Z,101127.37
2019-06-15T04:03:57.546Z,101123.25
2019-06-15T04:06:27.090Z,101118.32
2019-06-15T04:08:56.743Z,101125.46
2019-06-15T04:11:26.318Z,101128.53
2019-06-15T04:13:55.863Z,101123.62
2019-06-15T04:16:25.759Z,101125.05
2019-06-15T04:18:55.431Z,101123.41
2019-06-15T04:21:24.976Z,101119.62
2019-06-15T04:23:54.594Z,101121.66
2019-06-15T04:26:35.614Z,101120.23
2019-06-15T04:28:55.506Z,101128.98
2019-06-15T04:31:25.052Z,101127.63
2019-06-15T04:33:55.190Z,101132.94
2019-06-15T04:36:24.764Z,101134.66
2019-06-15T04:38:54.306Z,101128.01
2019-06-15T04:41:24.081Z,101135.52
2019-06-15T04:43:53.713Z,101131.59
2019-06-15T04:46:23.277Z,101137.84
2019-06-15T04:48:53.214Z,101141.31
2019-06-15T04:51:22.786Z,101144.50
2019-06-15T04:53:52.342Z,101136.80
2019-06-15T04:56:21.911Z,101148.91
2019-06-15T04:58:51.590Z,101139.11
2019-06-15T05:01:21.162Z,101141.31
2019-06-15T05:03:50.758Z,101144.50
2019-06-15T05:06:20.688Z,101149.77
2019-06-15T05:08:50.252Z,101148.91
2019-06-15T05:11:20.103Z,101145.73
2019-06-15T05:13:49.679Z,101135.93
2019-06-15T05:16:19.341Z,101123.41
2019-06-15T05:18:49.208Z,101118.99
2019-06-15T05:21:18.778Z,101111.40
2019-06-15T05:23:48.921Z,101128.34
2019-06-15T05:26:18.820Z,101135.82
2019-06-15T05:28:48.383Z,101136.80
2019-06-15T05:31:36.354Z,101138.14
2019-06-15T05:34:05.822Z,101131.41
2019-06-15T05:36:35.380Z,101139.00
2019-06-15T05:39:06.381Z,101134.96
2019-06-15T05:41:36.061Z,101130.92
2019-06-15T05:44:05.843Z,101134.47
2019-06-15T05:46:35.414Z,101129.98
2019-06-15T05:49:04.967Z,101128.72
2019-06-15T05:51:34.535Z,101120.56
2019-06-15T05:54:04.093Z,101115.17
2019-06-15T05:56:33.674Z,101112.38
2019-06-15T05:59:03.231Z,101108.89
2019-06-15T06:01:32.764Z,101113.72
2019-06-15T06:04:02.560Z,101108.73
2019-06-15T06:06:32.106Z,101108.73
2019-06-15T06:09:01.743Z,101102.09
2019-06-15T06:11:31.312Z,101092.09
2019-06-15T06:14:00.870Z,101083.16
2019-06-15T06:16:30.430Z,101072.39
2019-06-15T06:19:00.310Z,101065.66
2019-06-15T06:21:29.981Z,101064.31
2019-06-15T06:23:59.575Z,101057.58
2019-06-15T06:26:29.108Z,101054.88
2019-06-15T06:28:59.032Z,101051.70
2019-06-15T06:31:28.591Z,101047.66
2019-06-15T06:33:58.490Z,101050.73
2019-06-15T06:36:28.068Z,101045.45
2019-06-15T06:38:57.989Z,101044.00
2019-06-15T06:41:27.616Z,101053.53
2019-06-15T06:43:57.234Z,101055.75
2019-06-15T06:46:26.890Z,101060.16
2019-06-15T06:48:56.459Z,101061.20
2019-06-15T06:51:26.053Z,101072.95
2019-06-15T06:53:55.600Z,101070.63
2019-06-15T06:56:25.302Z,101090.75
2019-06-15T06:58:55.086Z,101112.38
2019-06-15T07:01:24.712Z,101123.62
2019-06-15T07:03:54.314Z,101128.94
2019-06-15T07:06:23.929Z,101143.26
2019-06-15T07:08:53.482Z,101156.61
2019-06-15T07:11:23.398Z,101159.80
2019-06-15T07:13:52.975Z,101160.28
2019-06-15T07:16:22.550Z,101156.23
2019-06-15T07:18:52.178Z,101158.07
2019-06-15T07:21:21.744Z,101167.02
2019-06-15T07:23:51.417Z,101167.98
2019-06-15T07:26:21.120Z,101169.22
2019-06-15T07:28:50.969Z,101164.70
2019-06-15T07:31:20.522Z,101174.12
2019-06-15T07:33:50.160Z,101184.52
2019-06-15T07:36:19.749Z,101182.20
2019-06-15T07:38:49.410Z,101182.20
2019-06-15T07:41:18.982Z,101186.23
2019-06-15T07:43:50.145Z,101189.34
2019-06-15T07:46:19.722Z,101195.21
2019-06-15T07:48:49.272Z,101191.06
2019-06-15T07:51:18.895Z,101194.31
2019-06-15T07:53:48.445Z,101191.55
2019-06-15T07:56:18.016Z,101195.96
2019-06-15T07:58:47.593Z,101196.86
2019-06-15T08:01:17.234Z,101204.83
2019-06-15T08:03:46.807Z,101199.44
2019-06-15T08:06:16.402Z,101201.20
2019-06-15T08:08:46.311Z,101214.66
2019-06-15T08:11:15.896Z,101221.70
2019-06-15T08:13:45.728Z,101242.27
2019-06-15T08:16:15.581Z,101243.63
2019-06-15T08:18:45.230Z,101241.78
2019-06-15T08:21:15.113Z,101246.23
2019-06-15T08:23:44.673Z,101254.77
2019-06-15T08:26:14.355Z,101245.78
2019-06-15T08:28:44.005Z,101225.62
2019-06-15T08:31:13.554Z,101221.28
2019-06-15T08:33:43.190Z,101238.16
2019-06-15T08:36:12.782Z,101246.69
2019-06-15T08:38:42.425Z,101242.61
2019-06-15T08:41:12.000Z,101246.16
2019-06-15T08:43:41.601Z,101250.20
2019-06-15T08:46:11.198Z,101265.50
2019-06-15T08:48:40.829Z,101272.23
2019-06-15T08:51:10.412Z,101280.24
2019-06-15T08:53:39.966Z,101283.80
2019-06-15T08:56:09.574Z,101287.35
2019-06-15T08:58:39.046Z,101277.06
2019-06-15T09:01:08.652Z,101280.63
2019-06-15T09:03:38.230Z,101294.50
2019-06-15T09:06:07.837Z,101293.23
2019-06-15T09:08:37.890Z,101300.92
2019-06-15T09:11:07.450Z,101295.13
2019-06-15T09:13:37.134Z,101302.73
2019-06-15T09:16:06.752Z,101304.60
2019-06-15T09:18:36.326Z,101302.50
2019-06-15T09:21:05.873Z,101307.09
2019-06-15T09:23:35.489Z,101318.36
2019-06-15T09:26:05.034Z,101317.95
2019-06-15T09:28:34.594Z,101321.98
2019-06-15T09:31:04.273Z,101336.23
2019-06-15T09:33:33.904Z,101344.39
2019-06-15T09:36:03.790Z,101349.70
2019-06-15T09:38:33.365Z,101350.49
2019-06-15T09:41:03.321Z,101350.67
2019-06-15T09:43:32.892Z,101352.95
2019-06-15T09:46:02.848Z,101355.03
2019-06-15T09:48:32.427Z,101352.17
2019-06-15T09:51:02.069Z,101353.44
2019-06-15T09:53:31.767Z,101355.58
2019-06-15T09:56:01.447Z,101357.00
2019-06-15T09:58:31.132Z,101353.52
2019-06-15T10:01:00.794Z,101362.25
2019-06-15T10:03:30.479Z,101362.33
2019-06-15T10:06:00.062Z,101359.87
2019-06-15T10:08:29.614Z,101362.08
2019-06-15T10:10:59.200Z,101380.92
2019-06-15T10:13:31.467Z,101387.59
2019-06-15T10:16:00.153Z,101390.18
2019-06-15T10:18:29.821Z,101384.34
2019-06-15T10:21:00.268Z,101386.37
2019-06-15T10:23:29.843Z,101386.45
2019-06-15T10:25:59.784Z,101388.08
2019-06-15T10:28:29.361Z,101384.97
2019-06-15T10:31:00.832Z,101389.80
2019-06-15T10:33:30.579Z,101388.08
2019-06-15T10:36:00.158Z,101390.28
2019-06-15T10:38:29.826Z,101399.30
2019-06-15T10:41:01.215Z,101403.75
2019-06-15T10:43:30.933Z,101406.52
2019-06-15T10:46:00.525Z,101408.65
2019-06-15T10:48:30.496Z,101410.79
2019-06-15T10:51:00.078Z,101406.44
2019-06-15T10:53:29.627Z,101413.17
2019-06-15T10:55:59.258Z,101418.45
2019-06-15T10:58:28.826Z,101429.09
2019-06-15T11:00:58.433Z,101423.95
2019-06-15T11:03:28.046Z,101426.81
2019-06-15T11:05:57.707Z,101434.62
2019-06-15T11:08:27.262Z,101433.44
2019-06-15T11:11:08.218Z,101436.06
2019-06-15T11:13:38.225Z,101439.25
2019-06-15T11:16:07.875Z,101440.91
2019-06-15T11:18:37.561Z,101444.28
2019-06-15T11:21:07.463Z,101454.27
2019-06-15T11:23:37.479Z,101448.81
2019-06-15T11:26:07.051Z,101450.53
2019-06-15T11:28:36.615Z,101453.13
2019-06-15T11:31:06.607Z,101455.44
2019-06-15T11:33:36.178Z,101455.89
2019-06-15T11:36:05.803Z,101465.77
2019-06-15T11:38:35.381Z,101474.26
2019-06-15T11:41:04.940Z,101480.92
2019-06-15T11:43:34.582Z,101484.86
2019-06-15T11:46:04.198Z,101484.00
2019-06-15T11:48:33.814Z,101479.89
2019-06-15T11:51:03.507Z,101471.70
2019-06-15T11:53:33.388Z,101487.41
2019-06-15T11:56:02.998Z,101477.33
2019-06-15T11:58:32.556Z,101486.20
2019-06-15T12:01:02.513Z,101486.20
2019-06-15T12:03:32.093Z,101484.75
2019-06-15T12:06:01.832Z,101484.30
2019-06-15T12:08:31.462Z,101479.78
2019-06-15T12:11:01.098Z,101489.38
2019-06-15T12:13:31.061Z,101483.89
2019-06-15T12:16:01.325Z,101495.15
2019-06-15T12:18:30.936Z,101499.67
2019-06-15T12:21:00.533Z,101503.16
2019-06-15T12:23:30.483Z,101507.20
2019-06-15T12:26:00.039Z,101505.45
2019-06-15T12:28:29.745Z,101500.54
2019-06-15T12:30:59.398Z,101509.90
2019-06-15T12:33:29.076Z,101514.49
2019-06-15T12:35:59.076Z,101513.45
2019-06-15T12:38:28.713Z,101520.57
2019-06-15T12:40:58.699Z,101518.84
2019-06-15T12:43:28.369Z,101512.97
2019-06-15T12:45:58.084Z,101505.69
2019-06-15T12:48:27.740Z,101510.66
2019-06-15T12:50:57.768Z,101516.70
2019-06-15T12:53:27.323Z,101518.43
2019-06-15T12:55:56.862Z,101515.67
2019-06-15T12:58:26.409Z,101517.50
2019-06-15T13:01:03.029Z,101516.53
2019-06-15T13:03:27.442Z,101514.14
2019-06-15T13:05:56.979Z,101523.98
2019-06-15T13:08:26.573Z,101520.33
2019-06-15T13:10:56.142Z,101512.42
2019-06-15T13:13:25.730Z,101519.95
2019-06-15T13:15:55.408Z,101530.24
2019-06-15T13:18:25.018Z,101529.83
2019-06-15T13:20:54.606Z,101519.53
2019-06-15T13:23:24.170Z,101520.88
2019-06-15T13:25:53.796Z,101528.97
2019-06-15T13:28:23.388Z,101526.75
2019-06-15T13:30:52.993Z,101526.13
2019-06-15T13:33:22.629Z,101520.74
2019-06-15T13:35:52.209Z,101521.98
2019-06-15T13:38:21.864Z,101519.47
2019-06-15T13:40:51.424Z,101517.95
2019-06-15T13:43:20.999Z,101526.34
2019-06-15T13:45:50.595Z,101530.86
2019-06-15T13:48:20.222Z,101529.45
2019-06-15T13:50:49.852Z,101529.52
2019-06-15T13:53:19.498Z,101524.99
2019-06-15T13:55:49.101Z,101533.88
2019-06-15T13:58:19.286Z,101528.41
2019-06-15T14:00:48.908Z,101524.37
2019-06-15T14:03:18.671Z,101524.75
2019-06-15T14:05:48.500Z,101521.08
2019-06-15T14:08:18.138Z,101517.53
2019-06-15T14:10:47.943Z,101519.84
2019-06-15T14:13:17.894Z,101526.95
2019-06-15T14:15:47.503Z,101524.67
2019-06-15T14:18:17.128Z,101531.41
2019-06-15T14:20:46.843Z,101521.98
2019-06-15T14:23:16.733Z,101516.97
2019-06-15T14:25:46.381Z,101511.51
2019-06-15T14:28:15.959Z,101507.91
2019-06-15T14:30:45.883Z,101507.16
2019-06-15T14:33:15.509Z,101503.98
2019-06-15T14:35:45.112Z,101506.12
2019-06-15T14:38:14.704Z,101503.42
2019-06-15T14:40:44.290Z,101502.08
2019-06-15T14:43:13.842Z,101501.11
2019-06-15T14:45:58.096Z,101494.37
2019-06-15T14:48:14.707Z,101489.95
2019-06-15T14:50:44.626Z,101492.33
2019-06-15T14:53:14.215Z,101495.03
2019-06-15T14:55:45.848Z,101497.23
2019-06-15T14:58:17.142Z,101501.84
2019-06-15T15:00:46.758Z,101513.30
2019-06-15T15:03:17.124Z,101511.75
2019-06-15T15:05:46.865Z,101511.27
2019-06-15T15:08:16.458Z,101523.40
2019-06-15T15:10:46.091Z,101521.98
2019-06-15T15:13:16.005Z,101512.92
2019-06-15T15:15:46.881Z,101511.66
2019-06-15T15:18:16.637Z,101506.27
2019-06-15T15:20:46.237Z,101511.09
2019-06-15T15:23:15.797Z,101512.06
2019-06-15T15:25:47.185Z,101511.20
2019-06-15T15:28:16.816Z,101515.63
2019-06-15T15:30:46.435Z,101525.06
2019-06-15T15:33:15.994Z,101516.11
2019-06-15T15:35:46.620Z,101514.77
2019-06-15T15:38:16.451Z,101517.34
2019-06-15T15:40:46.867Z,101532.59
2019-06-15T15:43:16.615Z,101526.89
2019-06-15T15:45:46.219Z,101523.33
2019-06-15T15:48:18.517Z,101527.27
2019-06-15T15:50:47.137Z,101527.68
2019-06-15T15:53:16.726Z,101528.55
2019-06-15T15:55:46.750Z,101516.90
2019-06-15T15:58:16.792Z,101516.00
2019-06-15T16:00:47.025Z,101529.48
2019-06-15T16:03:16.825Z,101530.38
2019-06-15T16:05:47.268Z,101533.52
2019-06-15T16:08:16.918Z,101534.80
2019-06-15T16:10:46.941Z,101538.91
2019-06-15T16:13:16.766Z,101536.22
2019-06-15T16:15:46.509Z,101541.23
2019-06-15T16:18:17.413Z,101546.13
2019-06-15T16:20:47.282Z,101543.54
2019-06-15T16:23:16.885Z,101547.97
2019-06-15T16:25:46.445Z,101549.31
2019-06-15T16:28:16.001Z,101550.66
2019-06-15T16:31:04.781Z,101550.73
2019-06-15T16:33:16.870Z,101548.14
2019-06-15T16:35:46.785Z,101550.42
2019-06-15T16:38:19.351Z,101550.83
2019-06-15T16:40:47.956Z,101555.36
2019-06-15T16:43:17.725Z,101554.46
2019-06-15T16:45:47.648Z,101554.02
2019-06-15T16:48:17.224Z,101546.00
2019-06-15T16:50:47.214Z,101540.05
2019-06-15T16:53:16.983Z,101534.84
2019-06-15T16:55:46.959Z,101534.05
2019-06-15T16:58:16.640Z,101543.86
2019-06-15T17:00:47.796Z,101537.67
2019-06-15T17:03:24.879Z,101534.42
2019-06-15T17:05:48.830Z,101531.34
2019-06-15T17:08:18.461Z,101530.48
2019-06-15T17:10:48.038Z,101527.30
2019-06-15T17:13:17.660Z,101525.09
2019-06-15T17:15:47.227Z,101530.38
2019-06-15T17:18:17.783Z,101537.12
2019-06-15T17:20:51.455Z,101537.53
2019-06-15T17:23:21.093Z,101538.39
2019-06-15T17:25:50.628Z,101539.64
2019-06-15T17:28:20.536Z,101544.09
2019-06-15T17:30:50.127Z,101542.81
2019-06-15T17:33:33.421Z,101541.88
2019-06-15T17:35:58.751Z,101540.05
2019-06-15T17:38:22.696Z,101539.09
2019-06-15T17:40:52.544Z,101531.00
2019-06-15T17:43:22.568Z,101540.44
2019-06-15T17:45:52.479Z,101542.58
2019-06-15T17:48:22.104Z,101538.16
2019-06-15T17:50:51.716Z,101529.66
2019-06-15T17:53:21.386Z,101526.02
2019-06-15T17:55:50.996Z,101530.45
2019-06-15T17:58:20.614Z,101530.06
2019-06-15T18:00:50.236Z,101532.34
2019-06-15T18:03:19.832Z,101534.18
2019-06-15T18:05:49.392Z,101535.45
2019-06-15T18:08:19.130Z,101536.32
2019-06-15T18:10:48.880Z,101532.28
2019-06-15T18:13:18.471Z,101529.58
2019-06-15T18:15:48.186Z,101532.17
2019-06-15T18:18:17.845Z,101533.52
2019-06-15T18:20:47.420Z,101535.28
2019-06-15T18:23:17.740Z,101535.28
2019-06-15T18:25:47.461Z,101529.48
2019-06-15T18:28:17.857Z,101525.36
2019-06-15T18:30:47.617Z,101529.89
2019-06-15T18:33:17.207Z,101533.45
2019-06-15T18:35:47.407Z,101528.06
2019-06-15T18:38:17.422Z,101532.11
2019-06-15T18:40:46.969Z,101523.53
2019-06-15T18:43:16.956Z,101525.36
2019-06-15T18:45:47.421Z,101524.87
2019-06-15T18:48:17.245Z,101529.41
2019-06-15T18:50:47.280Z,101519.97
2019-06-15T18:53:17.188Z,101528.92
2019-06-15T18:55:47.527Z,101520.84
2019-06-15T18:58:17.722Z,101522.19
2019-06-15T19:00:47.483Z,101533.38
2019-06-15T19:03:17.201Z,101531.14
2019-06-15T19:05:47.698Z,101533.45
2019-06-15T19:08:17.639Z,101531.63
2019-06-15T19:10:47.351Z,101537.02
2019-06-15T19:13:16.929Z,101531.23
2019-06-15T19:15:46.946Z,101537.02
2019-06-15T19:18:17.879Z,101526.71
2019-06-15T19:20:47.779Z,101528.55
2019-06-15T19:23:17.345Z,101524.50
2019-06-15T19:25:47.339Z,101524.50
2019-06-15T19:28:17.083Z,101533.45
2019-06-15T19:30:48.419Z,101527.68
2019-06-15T19:33:18.057Z,101543.75
2019-06-15T19:35:47.610Z,101544.23
2019-06-15T19:38:17.630Z,101546.06
2019-06-15T19:40:47.444Z,101556.36
2019-06-15T19:43:17.025Z,101555.02
2019-06-15T19:45:46.625Z,101558.67
2019-06-15T19:48:17.105Z,101548.76
2019-06-15T19:50:47.118Z,101553.66
2019-06-15T19:53:17.422Z,101555.08
2019-06-15T19:55:47.405Z,101554.22
2019-06-15T19:58:17.425Z,101566.83
2019-06-15T20:00:47.268Z,101576.27
2019-06-15T20:03:17.102Z,101571.36
2019-06-15T20:05:46.728Z,101579.02
2019-06-15T20:08:17.707Z,101572.77
2019-06-15T20:10:47.655Z,101575.87
2019-06-15T20:13:17.630Z,101574.60
2019-06-15T20:15:47.813Z,101582.69
2019-06-15T20:18:17.892Z,101582.76
2019-06-15T20:20:47.597Z,101586.42
2019-06-15T20:23:17.177Z,101587.83
2019-06-15T20:25:47.335Z,101595.47
2019-06-15T20:28:17.420Z,101595.05
2019-06-15T20:30:47.519Z,101601.41
2019-06-15T20:33:17.145Z,101601.41
2019-06-15T20:35:47.273Z,101605.45
2019-06-15T20:38:17.006Z,101609.08
2019-06-15T20:40:47.609Z,101610.91
2019-06-15T20:43:17.411Z,101620.83
2019-06-15T20:45:47.637Z,101622.55
2019-06-15T20:48:17.200Z,101620.83
2019-06-15T20:50:47.301Z,101617.34
2019-06-15T20:53:17.229Z,101622.73
2019-06-15T20:55:47.159Z,101620.52
2019-06-15T20:58:17.470Z,101622.34
2019-06-15T21:00:47.808Z,101623.76
2019-06-15T21:03:17.521Z,101623.37
2019-06-15T21:05:47.797Z,101626.06
2019-06-15T21:08:17.476Z,101629.15
2019-06-15T21:10:47.031Z,101622.03
2019-06-15T21:13:17.079Z,101621.61
2019-06-15T21:15:47.588Z,101615.36
2019-06-15T21:18:17.481Z,101609.41
2019-06-15T21:20:47.353Z,101610.69
2019-06-15T21:23:17.209Z,101610.63
2019-06-15T21:25:47.059Z,101610.14
2019-06-15T21:28:17.039Z,101616.39
2019-06-15T21:30:47.357Z,101619.57
2019-06-15T21:33:16.913Z,101616.01
2019-06-15T21:35:52.276Z,101622.81
2019-06-15T21:38:17.729Z,101619.16
2019-06-15T21:40:47.790Z,101619.63
2019-06-15T21:43:17.697Z,101622.33
2019-06-15T21:45:47.240Z,101618.39
2019-06-15T21:48:16.824Z,101624.54
2019-06-15T21:50:47.201Z,101627.72
2019-06-15T21:53:17.054Z,101629.16
2019-06-15T21:55:47.301Z,101622.50
2019-06-15T21:58:17.269Z,101631.06
2019-06-15T22:01:01.891Z,101630.09
2019-06-15T22:03:31.388Z,101631.92
2019-06-15T22:06:03.151Z,101631.99
2019-06-15T22:08:32.204Z,101628.37
2019-06-15T22:11:01.905Z,101639.14
2019-06-15T22:13:31.451Z,101638.66
2019-06-15T22:16:01.341Z,101638.66
2019-06-15T22:18:30.856Z,101633.27
2019-06-15T22:21:00.455Z,101638.17
2019-06-15T22:23:30.372Z,101639.14
2019-06-15T22:25:59.996Z,101637.80
2019-06-15T22:28:29.592Z,101640.39
2019-06-15T22:30:59.225Z,101642.64
2019-06-15T22:33:28.761Z,101645.71
2019-06-15T22:35:58.414Z,101644.91
2019-06-15T22:38:28.012Z,101654.83
2019-06-15T22:40:57.634Z,101655.69
2019-06-15T22:43:27.489Z,101658.80
2019-06-15T22:45:57.542Z,101657.45
2019-06-15T22:48:27.318Z,101656.11
2019-06-15T22:50:56.892Z,101661.88
2019-06-15T22:53:27.142Z,101656.56
2019-06-15T22:55:57.157Z,101657.45
2019-06-15T22:58:27.195Z,101661.39
2019-06-15T23:00:56.992Z,101664.09
2019-06-15T23:03:26.558Z,101657.45
2019-06-15T23:05:57.208Z,101666.72
2019-06-15T23:08:26.923Z,101668.13
2019-06-15T23:10:57.135Z,101671.69
2019-06-15T23:13:26.931Z,101673.04
2019-06-15T23:15:56.597Z,101667.20
2019-06-15T23:18:26.152Z,101663.61
2019-06-15T23:20:56.931Z,101670.83
2019-06-15T23:23:26.977Z,101672.66
2019-06-15T23:25:56.739Z,101668.13
2019-06-15T23:28:27.061Z,101671.69
2019-06-15T23:30:56.792Z,101672.17
2019-06-15T23:33:26.717Z,101671.69
2019-06-15T23:36:01.560Z,101674.87
2019-06-15T23:38:31.193Z,101671.24
2019-06-15T23:41:00.773Z,101672.72
2019-06-15T23:43:30.372Z,101674.38
2019-06-15T23:45:59.926Z,101672.66
2019-06-15T23:48:29.501Z,101676.70
2019-06-15T23:50:59.058Z,101674.97
2019-06-15T23:53:28.668Z,101676.70
2019-06-15T23:55:58.309Z,101677.08
2019-06-15T23:58:27.907Z,101676.22
